Time;durP1;ratioP1;P1;durP2;ratioP2;P2;SDS_P1;SDS_P2;PMS_P1;PMS_P2;Temp;Humidity;BMP_temperature;BMP_pressure;BME280_temperature;BME280_humidity;BME280_pressure;Samples;Min_cycle;Max_cycle;Signal;HPM_P1;HPM_P2
2021/07/15 00:00:41;;;;;;;15.35;9.35;;;;;;;22.15;85.02;99094.41;5074327;28;20033;-69
2021/07/15 00:03:12;;;;;;;20.13;10.45;;;;;;;22.05;84.89;99088.88;5056449;28;20147;-73
2021/07/15 00:05:42;;;;;;;23.67;10.95;;;;;;;21.97;85.21;99091.91;5074085;28;20131;-69
2021/07/15 00:08:13;;;;;;;22.20;10.50;;;;;;;21.90;85.46;99097.53;5074888;28;20411;-69
2021/07/15 00:10:44;;;;;;;15.55;10.43;;;;;;;21.82;85.69;99095.31;5074807;28;20542;-73
2021/07/15 00:13:14;;;;;;;19.08;11.05;;;;;;;21.96;85.89;99094.56;5056504;28;20135;-69
2021/07/15 00:15:51;;;;;;;19.45;11.10;;;;;;;22.10;85.83;99094.63;5074248;28;20051;-69
2021/07/15 00:18:23;;;;;;;24.20;10.98;;;;;;;22.14;85.78;99085.75;5074680;28;20040;-70
2021/07/15 00:20:53;;;;;;;16.98;9.52;;;;;;;22.12;85.64;99098.00;5074333;28;20079;-73
2021/07/15 00:23:23;;;;;;;16.42;9.85;;;;;;;22.13;85.58;99094.47;5074305;28;20048;-72
2021/07/15 00:25:53;;;;;;;16.98;9.18;;;;;;;22.14;85.23;99096.16;5073787;28;20418;-69
2021/07/15 00:28:21;;;;;;;;;;;;;;;22.06;85.02;99098.34;5074254;28;20106;-69
2021/07/15 00:30:52;;;;;;;19.00;10.47;;;;;;;22.11;85.01;99085.91;5073502;28;20332;-70
2021/07/15 00:33:22;;;;;;;28.15;10.60;;;;;;;22.14;84.88;99090.94;5055890;28;20059;-72
2021/07/15 00:35:51;;;;;;;21.00;10.13;;;;;;;22.19;84.92;99093.28;5073643;28;20371;-69
2021/07/15 00:38:22;;;;;;;19.00;9.35;;;;;;;22.14;84.50;99090.94;5074084;28;20048;-69
2021/07/15 00:40:52;;;;;;;16.73;8.52;;;;;;;21.95;84.40;99085.13;5073683;28;20087;-72
2021/07/15 00:43:22;;;;;;;21.25;9.30;;;;;;;21.96;84.66;99091.97;5074309;28;20045;-69
2021/07/15 00:45:52;;;;;;;20.58;9.82;;;;;;;21.88;84.50;99097.59;5073631;28;20054;-73
2021/07/15 00:48:22;;;;;;;14.70;8.20;;;;;;;21.75;84.34;99087.94;5074017;28;20037;-69
2021/07/15 00:50:52;;;;;;;19.55;9.45;;;;;;;21.61;84.53;99091.31;5073581;28;20056;-73
2021/07/15 00:53:22;;;;;;;15.18;9.15;;;;;;;21.59;84.86;99087.13;5074241;28;20047;-69
2021/07/15 00:55:51;;;;;;;22.60;9.68;;;;;;;21.55;84.77;99090.78;5055824;28;20468;-69
2021/07/15 00:58:20;;;;;;;22.27;9.73;;;;;;;21.57;85.21;99091.56;5073574;28;20565;-69
2021/07/15 01:00:51;;;;;;;20.40;11.02;;;;;;;21.63;85.47;99093.81;5055668;28;20041;-69
2021/07/15 01:03:22;;;;;;;22.33;12.05;;;;;;;21.71;85.70;99086.44;5073879;28;20548;-73
2021/07/15 01:05:54;;;;;;;20.08;10.77;;;;;;;21.69;85.69;99078.72;5073417;28;20041;-72
2021/07/15 01:08:23;;;;;;;17.33;10.63;;;;;;;21.51;85.52;99074.56;5073777;28;20064;-69
2021/07/15 01:10:55;;;;;;;17.23;9.68;;;;;;;21.41;85.60;99085.53;5073771;28;20048;-72
2021/07/15 01:13:39;;;;;;;20.65;9.57;;;;;;;21.38;85.68;99076.97;5073767;28;20127;-72
2021/07/15 01:16:18;;;;;;;16.42;9.95;;;;;;;21.42;85.90;99058.66;5073762;28;20037;-73
2021/07/15 01:19:02;;;;;;;16.73;9.90;;;;;;;21.50;85.93;99066.88;5073811;28;20049;-70
2021/07/15 01:22:00;;;;;;;20.23;10.93;;;;;;;21.40;85.64;99070.88;5077083;28;20106;-73
2021/07/15 01:24:55;;;;;;;21.60;9.65;;;;;;;21.31;85.78;99062.66;5077898;28;20055;-69
2021/07/15 01:27:51;;;;;;;21.38;9.65;;;;;;;21.43;85.54;99062.94;5068421;28;20561;-69
2021/07/15 01:30:24;;;;;;;18.55;10.25;;;;;;;21.12;85.16;99056.78;5077344;28;20036;-72
2021/07/15 01:33:01;;;;;;;15.48;9.43;;;;;;;20.90;85.20;99056.19;5077135;28;20379;-69
2021/07/15 01:35:35;;;;;;;22.27;9.23;;;;;;;20.85;85.65;99062.56;5077289;28;20063;-72
2021/07/15 01:38:06;;;;;;;16.27;9.52;;;;;;;20.64;85.73;99069.69;5077176;28;20045;-72
2021/07/15 01:40:44;;;;;;;16.40;10.23;;;;;;;20.84;86.40;99064.31;5077378;28;20125;-69
2021/07/15 01:43:17;;;;;;;19.35;12.63;;;;;;;20.94;86.38;99057.75;5077248;28;20044;-71
2021/07/15 01:45:48;;;;;;;27.63;12.80;;;;;;;20.66;85.90;99052.28;5076907;28;20037;-69
2021/07/15 01:48:18;;;;;;;19.98;11.57;;;;;;;20.41;85.90;99050.13;5077210;28;20044;-73
2021/07/15 01:50:47;;;;;;;;;;;;;;;20.43;86.20;99044.84;5077282;28;20086;-73
2021/07/15 01:53:16;;;;;;;18.48;11.13;;;;;;;20.44;86.33;99041.38;5076775;28;19921;-73
2021/07/15 01:55:46;;;;;;;;;;;;;;;20.38;86.25;99036.47;5077461;28;20040;-73
2021/07/15 01:58:15;;;;;;;21.73;10.40;;;;;;;20.27;86.11;99036.19;5076653;28;19921;-70
2021/07/15 02:00:45;;;;;;;25.15;11.35;;;;;;;20.16;86.23;99031.50;5076941;28;20064;-73
2021/07/15 02:03:18;;;;;;;19.95;10.32;;;;;;;20.15;86.48;99029.00;5076664;28;20044;-69
2021/07/15 02:05:48;;;;;;;21.33;10.55;;;;;;;20.17;86.33;99033.19;5076529;28;20041;-73
2021/07/15 02:08:18;;;;;;;24.85;11.02;;;;;;;19.98;86.42;99028.09;5076478;28;20094;-73
2021/07/15 02:10:48;;;;;;;22.63;10.27;;;;;;;19.79;86.44;99032.50;5076738;28;20060;-73
2021/07/15 02:13:18;;;;;;;22.45;11.15;;;;;;;19.80;86.85;99022.94;5076748;28;20135;-73
2021/07/15 02:15:49;;;;;;;17.33;10.23;;;;;;;19.75;86.88;99028.34;5076347;28;20048;-70
2021/07/15 02:18:23;;;;;;;22.42;11.35;;;;;;;19.62;87.06;99032.47;5076317;28;20049;-73
2021/07/15 02:20:56;;;;;;;22.55;12.00;;;;;;;19.75;87.34;99019.72;5076614;28;20421;-70
2021/07/15 02:23:28;;;;;;;23.65;11.43;;;;;;;19.89;87.53;99017.34;5076613;28;20044;-70
2021/07/15 02:25:59;;;;;;;22.40;11.55;;;;;;;19.82;87.03;99024.53;5076456;28;20417;-73
2021/07/15 02:28:29;;;;;;;23.45;11.02;;;;;;;19.61;86.75;99030.75;5076318;28;20386;-71
2021/07/15 02:31:05;;;;;;;18.05;12.02;;;;;;;19.60;87.23;99042.06;5075788;28;20056;-70
2021/07/15 02:33:40;;;;;;;26.17;12.50;;;;;;;19.72;87.71;99051.81;5076417;28;20052;-73
2021/07/15 02:36:12;;;;;;;20.95;13.48;;;;;;;19.90;87.61;99044.91;5076088;28;20437;-70
2021/07/15 02:38:44;;;;;;;19.60;12.85;;;;;;;19.97;87.59;99060.06;5076264;28;20044;-70
2021/07/15 02:41:13;;;;;;;26.65;12.98;;;;;;;19.98;87.64;99061.75;5076244;28;20048;-70
2021/07/15 02:43:42;;;;;;;28.05;12.63;;;;;;;20.00;87.88;99067.72;5058362;28;20059;-70
2021/07/15 02:46:11;;;;;;;21.30;11.55;;;;;;;19.90;87.81;99071.66;5075683;28;20063;-69
2021/07/15 02:48:42;;;;;;;23.23;11.70;;;;;;;19.99;88.08;99076.38;5076046;28;20049;-72
2021/07/15 02:51:11;;;;;;;40.65;12.38;;;;;;;20.08;87.82;99074.25;5076090;28;20090;-69
2021/07/15 02:53:41;;;;;;;26.52;11.50;;;;;;;19.99;87.61;99080.72;5075991;28;20123;-73
2021/07/15 02:56:15;;;;;;;24.70;12.80;;;;;;;19.98;87.42;99082.50;5075587;28;20414;-70
2021/07/15 02:58:58;;;;;;;22.13;11.20;;;;;;;20.01;87.27;99090.09;5057979;28;20398;-70
2021/07/15 03:01:31;;;;;;;26.42;10.98;;;;;;;19.62;86.65;99097.19;5075901;28;20123;-73
2021/07/15 03:04:09;;;;;;;26.05;11.52;;;;;;;19.40;86.73;99086.13;5075536;28;20513;-73
2021/07/15 03:06:41;;;;;;;25.15;10.65;;;;;;;19.26;87.05;99088.50;5075522;28;20063;-73
2021/07/15 03:09:14;;;;;;;22.85;10.88;;;;;;;19.42;87.31;99094.66;5075401;28;20123;-73
2021/07/15 03:11:50;;;;;;;24.77;11.02;;;;;;;19.61;87.44;99085.13;5075372;28;20048;-73
2021/07/15 03:14:20;;;;;;;19.98;9.55;;;;;;;19.38;86.79;99088.81;5075444;28;20119;-73
2021/07/15 03:16:50;;;;;;;21.80;10.80;;;;;;;19.25;87.21;99099.72;5008465;28;20127;-70
2021/07/15 03:19:22;;;;;;;26.05;10.98;;;;;;;19.28;87.41;99102.19;5075544;28;20098;-73
2021/07/15 03:21:51;;;;;;;17.38;9.73;;;;;;;19.39;87.74;99099.97;5075775;28;20048;-70
2021/07/15 03:24:22;;;;;;;18.25;9.32;;;;;;;19.58;87.74;99102.59;5075078;28;20043;-73
2021/07/15 03:26:53;;;;;;;15.32;9.32;;;;;;;19.53;87.64;99107.94;5074971;28;20402;-70
2021/07/15 03:29:23;;;;;;;22.13;9.93;;;;;;;19.63;87.76;99108.34;5075345;28;20120;-70
2021/07/15 03:31:56;;;;;;;15.32;8.88;;;;;;;19.69;87.67;99119.28;5075156;28;20048;-73
2021/07/15 03:34:29;;;;;;;24.95;11.68;;;;;;;19.69;87.82;99134.81;5075257;28;20067;-70
2021/07/15 03:37:00;;;;;;;25.67;13.05;;;;;;;19.68;87.90;99130.53;5075170;28;20043;-70
2021/07/15 03:39:29;;;;;;;24.95;12.88;;;;;;;19.72;88.28;99134.69;5074726;28;20053;-73
2021/07/15 03:41:59;;;;;;;26.30;13.45;;;;;;;19.83;88.66;99137.59;5074872;28;20072;-73
2021/07/15 03:44:29;;;;;;;36.17;15.48;;;;;;;20.00;88.63;99135.06;5074342;28;20048;-73
2021/07/15 03:46:59;;;;;;;34.00;14.18;;;;;;;20.11;88.56;99136.31;5056594;28;20047;-70
2021/07/15 03:49:30;;;;;;;30.98;15.13;;;;;;;20.10;88.81;99129.44;5074694;28;20045;-70
2021/07/15 03:52:00;;;;;;;28.23;15.15;;;;;;;20.15;88.97;99132.66;5074560;28;20052;-73
2021/07/15 03:54:30;;;;;;;29.05;15.27;;;;;;;20.22;89.18;99129.72;5074481;28;20052;-70
2021/07/15 03:56:59;;;;;;;;;;;;;;;20.32;89.43;99130.13;5074770;28;20564;-70
2021/07/15 03:59:32;;;;;;;29.90;15.48;;;;;;;20.30;89.55;99126.75;5074705;28;19927;-73
2021/07/15 04:02:04;;;;;;;32.88;14.88;;;;;;;20.32;89.35;99130.13;5074430;28;20044;-73
2021/07/15 04:04:36;;;;;;;32.80;16.27;;;;;;;20.37;89.28;99128.13;5074331;28;20111;-70
2021/07/15 04:07:08;;;;;;;28.30;15.43;;;;;;;20.34;89.36;99133.47;5074506;28;20049;-73
2021/07/15 04:09:38;;;;;;;33.15;16.35;;;;;;;20.36;89.53;99131.63;5074580;28;20483;-70
2021/07/15 04:12:08;;;;;;;37.25;17.70;;;;;;;20.53;89.62;99136.81;5074469;28;20086;-72
2021/07/15 04:14:50;;;;;;;33.88;16.75;;;;;;;20.67;89.83;99134.38;5074174;28;20123;-73
2021/07/15 04:17:21;;;;;;;36.67;17.17;;;;;;;20.67;89.64;99142.16;5041238;28;20048;-70
2021/07/15 04:19:54;;;;;;;27.70;15.27;;;;;;;20.54;89.57;99135.91;5074686;28;20493;-73
2021/07/15 04:22:24;;;;;;;38.33;15.43;;;;;;;20.46;89.49;99138.03;5074392;28;20124;-73
2021/07/15 04:24:54;;;;;;;31.73;16.05;;;;;;;20.47;89.56;99139.72;5073922;28;20102;-73
2021/07/15 04:27:25;;;;;;;28.63;15.82;;;;;;;20.49;89.60;99133.53;5073778;28;20040;-73
2021/07/15 04:30:01;;;;;;;28.92;15.07;;;;;;;20.59;90.12;99136.50;5074069;28;20039;-70
2021/07/15 04:32:34;;;;;;;33.45;16.63;;;;;;;20.65;90.09;99144.84;5073722;28;20394;-70
2021/07/15 04:35:07;;;;;;;38.28;18.60;;;;;;;20.78;89.98;99152.00;5073910;28;20036;-73
2021/07/15 04:37:38;;;;;;;39.85;18.92;;;;;;;20.87;89.97;99147.19;5074151;28;20045;-70
2021/07/15 04:40:09;;;;;;;35.33;18.73;;;;;;;20.93;90.00;99144.25;5074069;28;20040;-73
2021/07/15 04:42:40;;;;;;;37.03;17.88;;;;;;;20.92;89.93;99147.78;5055813;28;20045;-70
2021/07/15 04:45:11;;;;;;;33.10;17.95;;;;;;;20.96;89.84;99149.31;5073766;28;20036;-70
2021/07/15 04:47:42;;;;;;;31.38;17.08;;;;;;;20.94;89.75;99151.16;5073911;28;20036;-70
2021/07/15 04:50:15;;;;;;;32.10;17.50;;;;;;;20.94;89.81;99151.16;5073997;28;20512;-70
2021/07/15 04:52:46;;;;;;;32.72;16.35;;;;;;;20.95;89.78;99151.97;5056380;28;20532;-70
2021/07/15 04:55:17;;;;;;;36.40;18.65;;;;;;;20.97;89.71;99161.34;5073114;28;20234;-73
2021/07/15 04:57:46;;;;;;;33.75;19.02;;;;;;;21.08;89.75;99159.09;5073672;28;20071;-70
2021/07/15 05:00:16;;;;;;;40.83;19.88;;;;;;;21.12;89.71;99160.59;5073551;28;20050;-70
2021/07/15 05:02:45;;;;;;;35.75;19.75;;;;;;;21.08;89.51;99159.09;5055876;28;20063;-73
2021/07/15 05:05:16;;;;;;;41.97;20.52;;;;;;;21.07;89.55;99160.00;5073828;28;20055;-70
2021/07/15 05:07:45;;;;;;;36.35;20.92;;;;;;;21.05;89.43;99163.59;5073444;28;20040;-73
2021/07/15 05:10:14;;;;;;;36.33;20.08;;;;;;;20.95;89.53;99158.00;5073439;28;20044;-70
2021/07/15 05:12:43;;;;;;;44.50;21.42;;;;;;;20.89;89.23;99158.31;5073938;28;20083;-70
2021/07/15 05:15:13;;;;;;;44.67;20.92;;;;;;;20.90;89.56;99156.56;5073401;28;20064;-72
2021/07/15 05:17:42;;;;;;;36.10;20.10;;;;;;;20.99;89.53;99159.53;5073677;28;20402;-70
2021/07/15 05:20:12;;;;;;;34.42;18.42;;;;;;;20.84;89.38;99155.13;5073326;28;20048;-70
2021/07/15 05:22:43;;;;;;;38.50;19.63;;;;;;;20.87;89.45;99154.97;5073618;28;20066;-72
2021/07/15 05:25:12;;;;;;;35.13;18.98;;;;;;;20.86;89.56;99153.28;5073267;28;20114;-70
2021/07/15 05:27:41;;;;;;;33.90;18.75;;;;;;;20.90;89.58;99159.16;5073139;28;20064;-70
2021/07/15 05:30:11;;;;;;;35.47;18.60;;;;;;;20.96;89.63;99159.69;5073234;28;20048;-73
2021/07/15 05:32:40;;;;;;;32.63;17.80;;;;;;;20.89;89.19;99158.31;5073109;28;20055;-72
2021/07/15 05:35:10;;;;;;;31.77;18.98;;;;;;;20.87;89.49;99160.16;5055156;28;20045;-73
2021/07/15 05:37:40;;;;;;;39.17;20.05;;;;;;;20.88;89.12;99160.97;5073137;28;20094;-73
2021/07/15 05:40:12;;;;;;;29.05;19.17;;;;;;;20.77;88.98;99163.28;5073118;28;20060;-72
2021/07/15 05:42:41;;;;;;;30.98;19.23;;;;;;;20.77;89.14;99164.13;5073487;28;20479;-72
2021/07/15 05:45:11;;;;;;;31.58;18.75;;;;;;;20.88;89.42;99161.81;5073313;28;20047;-73
2021/07/15 05:47:40;;;;;;;38.53;20.48;;;;;;;21.00;89.70;99166.38;5072976;28;20053;-70
2021/07/15 05:50:11;;;;;;;31.65;18.30;;;;;;;21.00;89.33;99168.97;5072986;28;20080;-72
2021/07/15 05:52:40;;;;;;;32.78;19.60;;;;;;;21.08;89.24;99172.06;5073031;28;20060;-72
2021/07/15 05:55:14;;;;;;;35.45;20.15;;;;;;;21.14;89.32;99173.50;5055120;28;20052;-70
2021/07/15 05:57:43;;;;;;;38.17;18.60;;;;;;;21.14;88.91;99174.31;5072985;28;20479;-69
2021/07/15 06:00:14;;;;;;;32.10;18.60;;;;;;;21.12;89.01;99173.56;5073281;28;20032;-70
2021/07/15 06:02:43;;;;;;;29.77;17.02;;;;;;;21.17;88.90;99179.38;5073489;28;20507;-72
2021/07/15 06:05:28;;;;;;;27.55;17.17;;;;;;;21.07;88.60;99178.16;5073017;28;20502;-72
2021/07/15 06:07:57;;;;;;;25.00;15.40;;;;;;;21.05;88.55;99185.19;5076490;28;20094;-73
2021/07/15 06:10:29;;;;;;;26.33;15.60;;;;;;;21.10;88.55;99193.59;5076536;28;20113;-72
2021/07/15 06:12:59;;;;;;;24.60;15.70;;;;;;;21.31;88.58;99194.22;5076406;28;20534;-71
2021/07/15 06:15:28;;;;;;;33.08;16.45;;;;;;;21.52;88.45;99192.28;5076476;28;20036;-70
2021/07/15 06:18:00;;;;;;;27.20;16.40;;;;;;;21.65;88.35;99198.47;5076286;28;20048;-69
2021/07/15 06:20:30;;;;;;;27.67;16.85;;;;;;;21.64;87.85;99199.41;5076277;28;20497;-72
2021/07/15 06:23:03;;;;;;;27.35;16.00;;;;;;;21.72;87.52;99200.66;5076388;28;20127;-72
2021/07/15 06:25:33;;;;;;;;;;;;;;;21.83;87.33;99205.31;5076610;28;20071;-71
2021/07/15 06:28:03;;;;;;;27.90;16.95;;;;;;;21.89;87.33;99211.03;5076153;28;20389;-71
2021/07/15 06:30:32;;;;;;;28.15;17.17;;;;;;;21.91;86.71;99203.13;5076052;28;20056;-71
2021/07/15 06:33:02;;;;;;;29.23;17.58;;;;;;;21.77;86.42;99211.66;5076453;28;20051;-69
2021/07/15 06:35:32;;;;;;;25.42;16.27;;;;;;;21.79;86.39;99215.00;5076030;28;20059;-69
2021/07/15 06:38:02;;;;;;;27.33;15.93;;;;;;;21.85;86.32;99217.31;5076012;28;20049;-69
2021/07/15 06:40:31;;;;;;;34.67;17.90;;;;;;;22.01;86.35;99225.13;5075593;28;20102;-69
2021/07/15 06:43:01;;;;;;;30.98;18.38;;;;;;;22.21;86.33;99221.44;5075770;28;20115;-69
2021/07/15 06:45:31;;;;;;;31.90;16.90;;;;;;;22.39;86.24;99221.22;5075833;28;20414;-70
2021/07/15 06:48:00;;;;;;;25.63;16.30;;;;;;;22.51;85.39;99225.75;5075598;28;20040;-71
2021/07/15 06:50:30;;;;;;;26.63;16.50;;;;;;;22.43;85.16;99227.97;5076004;28;20040;-70
2021/07/15 06:53:01;;;;;;;33.03;16.40;;;;;;;22.46;84.88;99217.34;5075590;28;20095;-70
2021/07/15 06:55:30;;;;;;;29.88;15.57;;;;;;;22.28;83.85;99226.22;5075668;28;20124;-69
2021/07/15 06:58:01;;;;;;;26.00;15.75;;;;;;;22.29;84.13;99214.88;5075605;28;20071;-69
2021/07/15 07:00:30;;;;;;;25.52;14.20;;;;;;;22.09;83.67;99217.75;5075527;28;20533;-70
2021/07/15 07:02:58;;;;;;;30.75;15.75;;;;;;;22.52;83.77;99205.78;5075812;28;20502;-69
2021/07/15 07:05:27;;;;;;;24.98;14.40;;;;;;;22.88;83.37;99208.06;5075619;28;20044;-68
2021/07/15 07:07:56;;;;;;;26.40;15.30;;;;;;;23.11;82.92;99200.56;5075698;28;20441;-69
2021/07/15 07:10:26;;;;;;;28.70;14.93;;;;;;;23.27;82.56;99201.31;5057396;28;20436;-69
2021/07/15 07:12:55;;;;;;;22.25;14.38;;;;;;;23.35;82.14;99200.88;5075920;28;20123;-68
2021/07/15 07:15:25;;;;;;;25.88;15.00;;;;;;;23.39;81.04;99204.16;5075167;28;20048;-69
2021/07/15 07:17:54;;;;;;;27.05;15.45;;;;;;;23.46;80.65;99195.88;5074154;28;20368;-69
2021/07/15 07:20:24;;;;;;;24.88;15.10;;;;;;;23.61;80.32;99205.34;5075025;28;20041;-69
2021/07/15 07:22:53;;;;;;;24.17;15.15;;;;;;;23.82;80.12;99204.06;5075129;28;20039;-69
2021/07/15 07:25:22;;;;;;;23.30;13.65;;;;;;;23.86;79.70;99213.34;5075366;28;20079;-68
2021/07/15 07:27:51;;;;;;;23.42;14.50;;;;;;;23.84;78.80;99210.00;5075273;28;20437;-69
2021/07/15 07:30:20;;;;;;;22.45;14.13;;;;;;;23.90;78.44;99207.00;5075489;28;20470;-68
2021/07/15 07:32:51;;;;;;;23.05;14.15;;;;;;;23.74;78.04;99211.50;5074868;28;20127;-69
2021/07/15 07:35:20;;;;;;;28.40;14.45;;;;;;;23.56;77.80;99207.44;5074874;28;20066;-70
2021/07/15 07:37:49;;;;;;;24.75;14.98;;;;;;;23.60;78.36;99208.91;5074815;28;20067;-70
2021/07/15 07:40:19;;;;;;;29.73;15.40;;;;;;;23.82;78.20;99204.06;5074674;28;20119;-68
2021/07/15 07:42:48;;;;;;;24.30;14.60;;;;;;;24.00;77.20;99196.81;5074723;28;20122;-68
2021/07/15 07:45:17;;;;;;;;;;;;;;;23.97;76.76;99197.84;5075128;28;20048;-68
2021/07/15 07:47:46;;;;;;;22.15;14.40;;;;;;;24.06;76.85;99206.03;5074809;28;19927;-68
2021/07/15 07:50:18;;;;;;;20.52;14.13;;;;;;;23.96;76.24;99201.41;5074909;28;20446;-68
2021/07/15 07:52:47;;;;;;;24.40;13.80;;;;;;;23.81;76.58;99197.16;5074482;28;20123;-68
2021/07/15 07:55:16;;;;;;;19.65;13.70;;;;;;;23.70;76.37;99202.19;5074501;28;20086;-68
2021/07/15 07:57:45;;;;;;;22.77;12.85;;;;;;;23.86;76.59;99202.91;5074447;28;20036;-68
2021/07/15 08:00:17;;;;;;;20.65;13.00;;;;;;;23.99;76.58;99201.19;5074303;28;20041;-67
2021/07/15 08:02:47;;;;;;;23.58;12.80;;;;;;;24.32;76.23;99207.84;5074690;28;20463;-68
2021/07/15 08:05:21;;;;;;;21.83;13.60;;;;;;;24.36;75.66;99209.31;5074300;28;20131;-68
2021/07/15 08:07:51;;;;;;;21.10;13.27;;;;;;;24.53;75.39;99202.09;5074525;28;20036;-67
2021/07/15 08:10:21;;;;;;;18.15;12.95;;;;;;;24.48;74.34;99198.94;5074119;28;20071;-67
2021/07/15 08:12:52;;;;;;;21.98;12.73;;;;;;;24.52;74.00;99199.59;5074476;28;20041;-67
2021/07/15 08:15:21;;;;;;;19.08;12.75;;;;;;;24.53;73.41;99201.25;5074173;28;20044;-67
2021/07/15 08:17:50;;;;;;;;;;;;;;;24.64;73.65;99193.56;5075107;28;20110;-67
2021/07/15 08:20:21;;;;;;;17.73;11.80;;;;;;;24.81;72.93;99203.72;5074360;28;19978;-67
2021/07/15 08:22:50;;;;;;;20.50;11.82;;;;;;;25.04;72.21;99202.22;5073948;28;20119;-67
2021/07/15 08:25:23;;;;;;;18.80;11.35;;;;;;;25.23;71.20;99210.47;5074057;28;20060;-69
2021/07/15 08:27:52;;;;;;;;;;;;;;;25.39;69.83;99218.13;5074266;28;20119;-67
2021/07/15 08:30:21;;;;;;;20.67;10.25;;;;;;;25.30;69.71;99220.41;5073881;28;19935;-68
2021/07/15 08:32:50;;;;;;;16.88;11.27;;;;;;;25.27;68.96;99219.75;5073742;28;20144;-71
2021/07/15 08:35:29;;;;;;;20.52;11.05;;;;;;;25.19;67.34;99220.28;5073664;28;20045;-70
2021/07/15 08:37:58;;;;;;;16.65;10.63;;;;;;;25.16;66.87;99223.13;5055977;28;20036;-69
2021/07/15 08:40:28;;;;;;;17.95;11.38;;;;;;;25.09;67.04;99229.69;5073560;28;20040;-66
2021/07/15 08:42:57;;;;;;;16.88;10.85;;;;;;;25.37;67.08;99235.66;5073792;28;20063;-66
2021/07/15 08:45:27;;;;;;;20.13;11.60;;;;;;;25.41;65.87;99237.94;5073566;28;20127;-71
2021/07/15 08:47:57;;;;;;;21.10;12.00;;;;;;;25.09;66.29;99237.53;5055464;28;20075;-69
2021/07/15 08:50:26;;;;;;;19.83;11.48;;;;;;;25.29;66.87;99223.09;5073460;28;20041;-66
2021/07/15 08:52:57;;;;;;;15.02;9.93;;;;;;;25.37;65.50;99215.59;5073291;28;20041;-67
2021/07/15 08:58:05;;;;;;;16.92;10.70;;;;;;;25.46;65.42;99219.41;5055790;28;20082;-67
2021/07/15 09:00:34;;;;;;;17.27;11.00;;;;;;;25.42;65.78;99217.88;5073452;28;20498;-67
2021/07/15 09:03:04;;;;;;;16.95;10.27;;;;;;;25.65;65.42;99222.41;5073667;28;20040;-67
2021/07/15 09:05:33;;;;;;;21.63;10.25;;;;;;;25.95;64.53;99212.41;5073505;28;20049;-67
2021/07/15 09:08:03;;;;;;;;;;;;;;;26.20;63.99;99214.94;5074206;28;20040;-67
2021/07/15 09:10:34;;;;;;;16.92;10.02;;;;;;;26.11;64.13;99218.22;5073418;28;19928;-67
2021/07/15 09:13:04;;;;;;;;;;;;;;;26.02;63.39;99213.63;5074081;28;20044;-67
2021/07/15 09:15:33;;;;;;;15.65;9.68;;;;;;;26.31;63.50;99214.19;5073744;28;19920;-68
2021/07/15 09:18:10;;;;;;;20.02;10.30;;;;;;;26.59;63.36;99217.28;5073430;28;20037;-67
2021/07/15 09:20:39;;;;;;;14.55;9.32;;;;;;;26.49;63.09;99213.66;5073416;28;20043;-68
2021/07/15 09:23:13;;;;;;;15.70;8.55;;;;;;;26.44;62.00;99215.78;5073102;28;20039;-68
2021/07/15 09:25:58;;;;;;;16.33;8.18;;;;;;;26.88;61.47;99219.56;5073343;28;20102;-68
2021/07/15 09:28:30;;;;;;;13.13;7.32;;;;;;;27.06;59.26;99226.06;5073308;28;20070;-68
2021/07/15 09:31:18;;;;;;;14.18;7.32;;;;;;;26.85;57.74;99231.09;5073183;28;20053;-67
2021/07/15 09:33:48;;;;;;;12.73;7.55;;;;;;;26.75;58.30;99231.88;5073262;28;20128;-68
2021/07/15 09:36:20;;;;;;;14.38;7.15;;;;;;;26.35;57.89;99232.16;5073052;28;20050;-68
2021/07/15 09:38:51;;;;;;;16.02;8.20;;;;;;;26.39;58.72;99233.63;5073140;28;20147;-67
2021/07/15 09:41:21;;;;;;;12.38;7.95;;;;;;;26.36;60.16;99244.31;5075373;28;20470;-68
2021/07/15 09:43:50;;;;;;;12.00;7.82;;;;;;;26.28;60.67;99240.56;5077352;28;20107;-68
2021/07/15 09:46:22;;;;;;;12.35;7.40;;;;;;;26.58;60.29;99226.13;5077320;28;20037;-68
2021/07/15 09:49:04;;;;;;;11.50;7.80;;;;;;;26.88;59.86;99225.63;5059198;28;20498;-68
2021/07/15 09:51:41;;;;;;;9.88;6.72;;;;;;;26.61;58.01;99228.47;5076846;28;20055;-67
2021/07/15 09:54:12;;;;;;;12.32;6.78;;;;;;;26.88;59.03;99227.41;5077208;28;20049;-67
2021/07/15 09:56:42;;;;;;;11.63;6.68;;;;;;;27.24;58.05;99222.03;5076949;28;20457;-67
2021/07/15 09:59:12;;;;;;;11.45;6.80;;;;;;;27.24;56.50;99215.00;5077117;28;20048;-67
2021/07/15 10:01:48;;;;;;;9.57;6.63;;;;;;;27.27;56.45;99227.03;5076826;28;20040;-68
2021/07/15 10:04:26;;;;;;;9.85;6.53;;;;;;;27.52;56.37;99221.59;5076613;28;20086;-68
2021/07/15 10:06:58;;;;;;;9.02;6.80;;;;;;;27.44;55.16;99213.50;5076842;28;20470;-71
2021/07/15 10:09:30;;;;;;;12.15;6.32;;;;;;;27.28;55.07;99218.22;5076410;28;20046;-69
2021/07/15 10:12:00;;;;;;;11.40;5.50;;;;;;;27.47;54.21;99208.03;5076644;28;20040;-67
2021/07/15 10:14:35;;;;;;;10.93;6.20;;;;;;;27.74;54.96;99210.25;5041948;28;20045;-66
2021/07/15 10:17:04;;;;;;;9.50;5.97;;;;;;;27.60;53.48;99203.50;5076725;28;20036;-69
2021/07/15 10:19:33;;;;;;;10.55;6.47;;;;;;;27.55;53.52;99207.41;5076364;28;20048;-70
2021/07/15 10:22:07;;;;;;;9.90;5.90;;;;;;;27.49;52.82;99203.50;5076515;28;20044;-68
2021/07/15 10:24:39;;;;;;;10.95;5.88;;;;;;;27.80;52.89;99204.56;5076686;28;20117;-69
2021/07/15 10:27:10;;;;;;;10.73;5.90;;;;;;;27.78;51.69;99201.22;5076391;28;20051;-67
2021/07/15 10:29:41;;;;;;;9.00;5.65;;;;;;;27.78;52.45;99203.84;5076508;28;20055;-69
2021/07/15 10:32:12;;;;;;;9.68;5.50;;;;;;;28.00;51.92;99213.50;5075859;28;20045;-69
2021/07/15 10:34:44;;;;;;;9.80;5.50;;;;;;;27.74;50.39;99211.09;5076384;28;20047;-72
2021/07/15 10:37:13;;;;;;;8.80;5.70;;;;;;;27.82;51.46;99207.88;5076613;28;20367;-67
2021/07/15 10:39:46;;;;;;;12.93;5.70;;;;;;;27.96;51.41;99209.41;5076231;28;20410;-70
2021/07/15 10:42:15;;;;;;;8.52;5.55;;;;;;;27.62;50.98;99206.81;5057985;28;20051;-70
2021/07/15 10:44:46;;;;;;;9.00;5.63;;;;;;;27.52;51.12;99199.81;5075945;28;20040;-67
2021/07/15 10:47:17;;;;;;;8.38;5.32;;;;;;;27.79;51.25;99214.22;5076201;28;20463;-67
2021/07/15 10:49:47;;;;;;;7.72;5.05;;;;;;;27.88;50.22;99202.97;5075641;28;20032;-68
2021/07/15 10:52:19;;;;;;;9.60;5.82;;;;;;;27.92;49.81;99214.91;5074738;28;20475;-69
2021/07/15 10:54:51;;;;;;;11.02;5.68;;;;;;;27.47;50.98;99212.44;5076072;28;20045;-69
2021/07/15 10:57:21;;;;;;;11.20;5.30;;;;;;;27.23;51.24;99209.88;5075612;28;20041;-69
2021/07/15 10:59:51;;;;;;;11.45;5.57;;;;;;;27.21;51.66;99203.94;5075288;28;20057;-69
2021/07/15 11:02:22;;;;;;;11.02;5.03;;;;;;;27.47;52.39;99208.03;5075423;28;20032;-69
2021/07/15 11:04:53;;;;;;;9.25;5.07;;;;;;;27.68;50.79;99206.34;5057912;28;20427;-70
2021/07/15 11:07:24;;;;;;;9.02;5.25;;;;;;;27.82;49.27;99208.72;5075467;28;20098;-70
2021/07/15 11:10:14;;;;;;;6.63;4.45;;;;;;;27.65;49.21;99206.59;5075331;28;20122;-69
2021/07/15 11:12:56;;;;;;;10.60;5.30;;;;;;;27.53;49.21;99191.81;5075339;28;20046;-69
2021/07/15 11:15:46;;;;;;;7.93;5.00;;;;;;;27.83;49.61;99199.88;5075235;28;20405;-69
2021/07/15 11:18:46;;;;;;;8.02;4.72;;;;;;;27.71;48.02;99211.38;5075059;28;20036;-70
2021/07/15 11:21:32;;;;;;;7.50;4.18;;;;;;;27.64;48.25;99199.66;5063502;28;20059;-71
2021/07/15 11:24:23;;;;;;;7.45;4.10;;;;;;;27.88;47.08;99208.22;5075150;28;20048;-69
2021/07/15 11:26:53;;;;;;;9.80;4.60;;;;;;;27.82;46.50;99198.22;5075362;28;20387;-69
2021/07/15 11:29:48;;;;;;;8.45;4.95;;;;;;;27.88;47.53;99195.09;5075369;28;20066;-69
2021/07/15 11:32:26;;;;;;;7.70;4.30;;;;;;;28.00;47.71;99200.38;5074569;28;20056;-68
2021/07/15 11:34:55;;;;;;;9.23;4.57;;;;;;;27.93;48.42;99199.97;5074962;28;20052;-69
2021/07/15 11:37:36;;;;;;;10.35;4.60;;;;;;;27.88;49.08;99197.72;5074372;28;20054;-69
2021/07/15 11:40:27;;;;;;;8.88;4.38;;;;;;;28.00;49.10;99203.00;5074753;28;20052;-68
2021/07/15 11:43:15;;;;;;;8.70;4.43;;;;;;;27.94;47.95;99201.66;5074399;28;20498;-69
2021/07/15 11:46:06;;;;;;;6.63;4.10;;;;;;;27.55;46.73;99195.16;5074637;28;20045;-69
2021/07/15 11:48:47;;;;;;;7.15;4.53;;;;;;;27.49;47.44;99189.56;5070872;28;20563;-69